Time;durP1;ratioP1;P1;durP2;ratioP2;P2;SDS_P1;SDS_P2;PMS_P1;PMS_P2;Temp;Humidity;BMP_temperature;BMP_pressure;BME280_temperature;BME280_humidity;BME280_pressure;Samples;Min_cycle;Max_cycle;Signal;HPM_P1;HPM_P2
2022/11/18 00:01:25;;;;;;;2.03;0.70;;;19.10;77.50;;;;;;6155693;22;45418;-70
2022/11/18 00:03:53;;;;;;;1.42;0.70;;;19.00;77.40;;;;;;6138839;22;45296;-71
2022/11/18 00:06:30;;;;;;;0.85;0.60;;;19.10;77.50;;;;;;6132509;22;46432;-71
2022/11/18 00:09:00;;;;;;;1.17;0.50;;;19.00;77.40;;;;;;6130485;22;45372;-71
2022/11/18 00:14:34;;;;;;;1.73;0.60;;;19.10;77.50;;;;;;6134215;22;45512;-71
2022/11/18 00:17:13;;;;;;;1.27;0.70;;;19.10;77.50;;;;;;6136478;22;46756;-70
2022/11/18 00:20:06;;;;;;;1.10;0.63;;;19.10;77.50;;;;;;6140369;22;45386;-71
2022/11/18 00:22:48;;;;;;;1.10;0.80;;;19.10;77.50;;;;;;6118911;22;45421;-70
2022/11/18 00:25:30;;;;;;;1.02;0.70;;;19.10;77.60;;;;;;6118259;22;45367;-72
2022/11/18 00:27:57;;;;;;;1.75;0.70;;;19.10;77.50;;;;;;6123212;22;47417;-72
2022/11/18 00:30:35;;;;;;;1.98;0.73;;;19.10;77.50;;;;;;6130117;22;45392;-72
2022/11/18 00:33:25;;;;;;;2.20;0.80;;;19.10;79.20;;;;;;6134295;22;45399;-72
2022/11/18 00:35:55;;;;;;;0.60;0.57;;;19.10;78.10;;;;;;6131478;22;45097;-72
2022/11/18 00:38:31;;;;;;;1.73;0.60;;;19.10;78.00;;;;;;6140945;22;46562;-72
2022/11/18 00:41:01;;;;;;;0.60;0.60;;;19.10;77.90;;;;;;6130406;22;45399;-72
2022/11/18 00:43:28;;;;;;;1.05;0.57;;;19.00;77.70;;;;;;6135136;22;45328;-72
2022/11/18 00:45:56;;;;;;;1.10;0.70;;;19.10;77.80;;;;;;6141960;22;45431;-71
2022/11/18 00:48:28;;;;;;;0.77;0.52;;;19.00;77.80;;;;;;6143976;22;46177;-72
2022/11/18 00:51:15;;;;;;;0.77;0.70;;;19.00;77.40;;;;;;6131196;22;45499;-72
2022/11/18 00:53:56;;;;;;;0.80;0.60;;;19.00;77.60;;;;;;6119533;22;45346;-72
2022/11/18 00:56:39;;;;;;;1.13;0.70;;;19.00;77.40;;;;;;6157067;22;45458;-72
2022/11/18 00:59:09;;;;;;;2.05;0.60;;;19.00;77.50;;;;;;6135379;22;47625;-72
2022/11/18 01:01:53;;;;;;;1.05;0.65;;;19.00;77.40;;;;;;6150058;22;45288;-71
2022/11/18 01:04:32;;;;;;;2.80;0.75;;;19.00;77.50;;;;;;6151029;22;45246;-72
2022/11/18 01:06:59;;;;;;;1.48;0.80;;;19.00;77.60;;;;;;6127091;22;45394;-72
2022/11/18 01:09:38;;;;;;;0.93;0.70;;;19.00;77.50;;;;;;6141370;22;47673;-72
2022/11/18 01:15:02;;;;;;;1.95;0.75;;;19.00;77.50;;;;;;6114884;22;45401;-72
2022/11/18 01:17:36;;;;;;;1.33;0.57;;;19.00;77.40;;;;;;6137156;22;45395;-72
2022/11/18 01:20:11;;;;;;;1.52;0.70;;;19.00;77.40;;;;;;6120515;22;46986;-72
2022/11/18 01:22:51;;;;;;;2.25;1.25;;;19.00;77.40;;;;;;6134938;22;45463;-72
2022/11/18 01:25:21;;;;;;;0.95;0.52;;;19.00;77.40;;;;;;6136132;22;45242;-72
2022/11/18 01:27:57;;;;;;;1.45;0.70;;;19.00;77.40;;;;;;6125456;22;45322;-71
2022/11/18 01:30:46;;;;;;;2.38;0.80;;;19.00;77.40;;;;;;6153179;22;46513;-72
2022/11/18 01:33:26;;;;;;;1.42;0.80;;;19.00;77.40;;;;;;6124027;22;45339;-72
2022/11/18 01:36:20;;;;;;;0.93;0.80;;;19.00;77.40;;;;;;6127899;22;45202;-72
2022/11/18 01:39:17;;;;;;;0.98;0.73;;;19.00;77.40;;;;;;6154839;22;45375;-72
2022/11/18 01:41:47;;;;;;;2.28;0.90;;;19.00;77.40;;;;;;6129458;22;47487;-72
2022/11/18 01:44:49;;;;;;;1.17;0.73;;;19.00;77.40;;;;;;6143780;22;45331;-71
2022/11/18 01:47:17;;;;;;;1.65;0.68;;;19.00;77.40;;;;;;6092496;22;45220;-72
2022/11/18 01:49:46;;;;;;;1.15;0.60;;;19.00;77.30;;;;;;6120575;22;45519;-72
2022/11/18 01:52:17;;;;;;;1.08;0.70;;;19.00;77.40;;;;;;6138299;22;47243;-72
2022/11/18 01:54:59;;;;;;;2.15;0.70;;;19.00;77.40;;;;;;6131807;22;45361;-72
2022/11/18 01:57:59;;;;;;;1.00;0.70;;;19.00;77.40;;;;;;6122621;22;45147;-72
2022/11/18 02:00:30;;;;;;;1.20;0.60;;;19.00;77.40;;;;;;6122841;22;45474;-71
2022/11/18 02:03:31;;;;;;;1.30;0.77;;;19.00;77.40;;;;;;6125200;22;46305;-72
2022/11/18 02:06:09;;;;;;;1.90;0.80;;;19.00;77.40;;;;;;6140228;22;45507;-72
2022/11/18 02:08:39;;;;;;;0.63;0.50;;;19.00;77.40;;;;;;6140241;22;45194;-72
2022/11/18 02:14:07;;;;;;;1.08;0.75;;;19.00;77.40;;;;;;6131365;22;45345;-72
2022/11/18 02:17:03;;;;;;;1.13;0.70;;;19.00;77.40;;;;;;6124876;22;45120;-72
2022/11/18 02:20:34;;;;;;;2.08;0.68;;;19.00;77.40;;;;;;6136254;22;45392;-72
2022/11/18 02:23:59;;;;;;;1.20;0.73;;;19.00;77.40;;;;;;6113387;22;45205;-72
2022/11/18 02:27:19;;;;;;;0.90;0.68;;;19.00;77.40;;;;;;6132032;22;47490;-72
2022/11/18 02:30:07;;;;;;;1.35;0.70;;;19.00;77.40;;;;;;6117550;22;45231;-72
2022/11/18 02:32:56;;;;;;;0.95;0.60;;;19.00;77.40;;;;;;6148803;22;45512;-72
2022/11/18 02:39:13;;;;;;;1.25;0.50;;;19.00;77.40;;;;;;6141938;22;45497;-72
2022/11/18 02:41:51;;;;;;;1.50;0.75;;;19.00;77.40;;;;;;6122762;22;45427;-72
2022/11/18 02:44:21;;;;;;;2.28;0.70;;;19.00;77.40;;;;;;6130748;22;45194;-72
2022/11/18 02:50:32;;;;;;;2.22;0.63;;;19.00;77.40;;;;;;6119214;22;45696;-72
2022/11/18 02:53:14;;;;;;;1.02;0.50;;;19.00;77.40;;;;;;6141314;22;45366;-72
2022/11/18 02:55:45;;;;;;;0.85;0.50;;;19.00;77.40;;;;;;6133043;22;45517;-72
2022/11/18 02:58:28;;;;;;;1.10;0.47;;;19.00;77.40;;;;;;6128923;22;45499;-72
2022/11/18 03:01:04;;;;;;;2.65;0.88;;;19.00;77.40;;;;;;6146960;22;47374;-72
2022/11/18 03:03:39;;;;;;;1.35;0.90;;;19.00;77.40;;;;;;6145323;22;45336;-72
2022/11/18 03:06:38;;;;;;;2.30;0.68;;;19.00;78.40;;;;;;6124148;22;45397;-72
2022/11/18 03:09:16;;;;;;;1.05;0.60;;;19.00;77.20;;;;;;6132207;22;45392;-72
2022/11/18 03:12:21;;;;;;;1.10;0.70;;;19.00;76.90;;;;;;6136705;22;47352;-72
2022/11/18 03:15:17;;;;;;;1.92;0.60;;;19.00;77.30;;;;;;6133544;22;45577;-72
2022/11/18 03:18:00;;;;;;;1.35;0.70;;;19.00;76.90;;;;;;6129801;22;45469;-72
2022/11/18 03:21:18;;;;;;;1.15;0.68;;;19.00;76.60;;;;;;6126979;22;45401;-71
2022/11/18 03:23:59;;;;;;;1.67;0.80;;;18.90;76.10;;;;;;6125352;22;46428;-71
2022/11/18 03:26:43;;;;;;;3.20;0.77;;;19.00;76.00;;;;;;6132027;22;45342;-71
2022/11/18 03:29:31;;;;;;;1.10;0.70;;;19.00;75.90;;;;;;6133269;22;45304;-71
2022/11/18 03:32:07;;;;;;;1.77;0.85;;;19.00;75.80;;;;;;6121297;22;45585;-71
2022/11/18 03:35:05;;;;;;;2.33;0.70;;;19.00;75.80;;;;;;6129944;22;46027;-71
2022/11/18 03:37:55;;;;;;;1.23;0.68;;;19.00;75.90;;;;;;6136631;22;45124;-71
2022/11/18 03:40:25;;;;;;;1.80;0.80;;;19.00;76.00;;;;;;6129685;22;45446;-71
2022/11/18 03:43:23;;;;;;;1.80;0.60;;;19.00;76.10;;;;;;6123375;22;45317;-71
2022/11/18 03:48:56;;;;;;;1.50;0.68;;;19.00;76.20;;;;;;6129264;22;45220;-71
2022/11/18 03:51:44;;;;;;;3.25;0.70;;;19.00;76.40;;;;;;6127975;22;45364;-72
2022/11/18 03:54:41;;;;;;;1.23;0.50;;;19.00;76.50;;;;;;6129008;22;45185;-71
2022/11/18 03:57:29;;;;;;;0.85;0.52;;;19.00;76.50;;;;;;6125903;22;46837;-71
2022/11/18 04:00:20;;;;;;;3.05;0.60;;;19.00;76.50;;;;;;6123593;22;45340;-71
2022/11/18 04:02:57;;;;;;;1.83;0.80;;;19.00;76.60;;;;;;6147997;22;45318;-72
2022/11/18 04:05:36;;;;;;;0.98;0.68;;;19.00;76.80;;;;;;6150493;22;45566;-72
2022/11/18 04:08:36;;;;;;;0.85;0.50;;;19.00;76.80;;;;;;6118660;22;46204;-72
2022/11/18 04:14:16;;;;;;;0.70;0.55;;;19.00;77.00;;;;;;6134628;22;45408;-72
2022/11/18 04:16:51;;;;;;;2.05;0.93;;;19.00;77.10;;;;;;6135009;22;45583;-71
2022/11/18 04:19:28;;;;;;;3.45;0.60;;;19.00;76.90;;;;;;6112551;22;46557;-72
2022/11/18 04:22:04;;;;;;;1.15;0.63;;;19.00;77.20;;;;;;6137498;22;45343;-72
2022/11/18 04:24:41;;;;;;;1.25;0.80;;;19.10;77.00;;;;;;6137844;22;45303;-72
2022/11/18 04:27:10;;;;;;;1.67;0.75;;;19.10;77.30;;;;;;6117303;22;45550;-72
2022/11/18 04:29:37;;;;;;;1.33;0.70;;;19.10;77.30;;;;;;6135238;22;47652;-72
2022/11/18 04:32:05;;;;;;;2.05;0.60;;;19.10;77.10;;;;;;6134810;22;45100;-72
2022/11/18 04:34:41;;;;;;;0.50;0.38;;;19.10;77.10;;;;;;6135917;22;45561;-72
2022/11/18 04:37:18;;;;;;;0.77;0.50;;;19.10;77.10;;;;;;6130677;22;45263;-72
2022/11/18 04:39:58;;;;;;;2.38;0.63;;;19.10;77.20;;;;;;6124863;22;47447;-72
2022/11/18 04:42:38;;;;;;;0.95;0.47;;;19.10;77.20;;;;;;6127462;22;45226;-72
2022/11/18 04:45:20;;;;;;;1.75;0.60;;;19.10;77.10;;;;;;6127937;22;45363;-72
2022/11/18 04:47:47;;;;;;;0.70;0.50;;;19.10;77.10;;;;;;6139074;22;45330;-72
2022/11/18 04:50:16;;;;;;;2.40;0.77;;;19.10;77.10;;;;;;6132346;22;47414;-72
2022/11/18 04:53:00;;;;;;;1.23;0.60;;;19.10;77.30;;;;;;6141938;22;45278;-72
2022/11/18 04:55:27;;;;;;;1.42;0.60;;;19.10;77.10;;;;;;6144570;22;45449;-72
2022/11/18 04:57:58;;;;;;;0.77;0.52;;;19.10;77.20;;;;;;6141765;22;45372;-72
2022/11/18 05:00:25;;;;;;;1.20;0.55;;;19.10;77.20;;;;;;6128340;22;46633;-72
2022/11/18 05:03:03;;;;;;;1.23;0.47;;;19.10;77.50;;;;;;6149383;22;45372;-72
2022/11/18 05:05:30;;;;;;;1.00;0.60;;;19.10;77.30;;;;;;6134239;22;45314;-72
2022/11/18 05:07:58;;;;;;;0.85;0.40;;;19.00;77.20;;;;;;6127372;22;45334;-72
2022/11/18 05:10:39;;;;;;;2.33;0.80;;;19.10;77.30;;;;;;6141013;22;46643;-72
2022/11/18 05:13:06;;;;;;;0.90;0.38;;;19.10;77.50;;;;;;6121269;22;45371;-72
2022/11/18 05:19:13;;;;;;;1.70;0.47;;;19.00;77.40;;;;;;6105970;22;45606;-72
2022/11/18 05:21:49;;;;;;;3.08;0.82;;;19.10;77.50;;;;;;6120475;22;47586;-72
2022/11/18 05:24:26;;;;;;;1.23;0.50;;;19.10;77.40;;;;;;6131637;22;45234;-71
2022/11/18 05:27:06;;;;;;;2.30;0.70;;;19.10;77.50;;;;;;6132322;22;45405;-72
2022/11/18 05:29:44;;;;;;;0.40;0.35;;;19.10;77.50;;;;;;6126324;22;45481;-72
2022/11/18 05:32:27;;;;;;;2.33;0.55;;;19.10;77.50;;;;;;6134097;22;46352;-72
2022/11/18 05:35:05;;;;;;;0.70;0.50;;;19.10;77.50;;;;;;6129667;22;45168;-72
2022/11/18 05:37:47;;;;;;;2.08;0.60;;;19.10;77.50;;;;;;6149750;22;45210;-72
2022/11/18 05:40:23;;;;;;;0.50;0.35;;;19.10;77.50;;;;;;6141060;22;45412;-72
2022/11/18 05:45:39;;;;;;;1.00;0.52;;;19.10;77.40;;;;;;6144569;22;45289;-71
2022/11/18 05:48:07;;;;;;;0.73;0.50;;;19.10;77.50;;;;;;6145695;22;45252;-72
2022/11/18 05:50:45;;;;;;;2.03;0.70;;;19.10;77.50;;;;;;6124294;22;45302;-71
2022/11/18 05:53:18;;;;;;;0.63;0.60;;;19.10;77.50;;;;;;6132968;22;47358;-71
2022/11/18 05:56:10;;;;;;;0.82;0.40;;;19.10;77.50;;;;;;6125527;22;45504;-71
2022/11/18 05:58:48;;;;;;;0.60;0.50;;;19.10;77.50;;;;;;6141467;22;45389;-71
2022/11/18 06:01:44;;;;;;;1.02;0.80;;;19.10;77.50;;;;;;6133688;22;45233;-71
2022/11/18 06:04:35;;;;;;;1.20;0.52;;;19.10;77.50;;;;;;6148543;22;47688;-71
2022/11/18 06:07:16;;;;;;;1.33;0.40;;;19.10;77.50;;;;;;6128175;22;45266;-71
2022/11/18 06:10:13;;;;;;;1.58;0.65;;;19.10;77.50;;;;;;6129338;22;45340;-71
2022/11/18 06:12:49;;;;;;;2.33;0.50;;;19.10;77.50;;;;;;6129583;22;45548;-71
2022/11/18 06:15:43;;;;;;;0.63;0.40;;;19.10;77.50;;;;;;6134664;22;47758;-71
2022/11/18 06:18:30;;;;;;;1.30;0.50;;;19.00;77.40;;;;;;6130953;22;45419;-72
2022/11/18 06:21:12;;;;;;;0.68;0.45;;;19.10;77.50;;;;;;6142830;22;45415;-71
2022/11/18 06:23:41;;;;;;;1.02;0.40;;;19.10;77.50;;;;;;6136021;22;45479;-72
2022/11/18 06:26:21;;;;;;;0.47;0.40;;;19.10;77.50;;;;;;6139145;22;46188;-71
2022/11/18 06:28:48;;;;;;;0.98;0.32;;;19.10;77.50;;;;;;6126793;22;45379;-71
2022/11/18 06:31:33;;;;;;;1.52;0.75;;;19.10;77.50;;;;;;6123858;22;45508;-72
2022/11/18 06:34:13;;;;;;;0.82;0.57;;;19.10;77.50;;;;;;6131808;22;45487;-72
2022/11/18 06:36:40;;;;;;;1.00;0.43;;;19.10;77.50;;;;;;6129322;22;45449;-72
2022/11/18 06:45:34;;;;;;;0.98;0.40;;;19.10;77.50;;;;;;6130137;22;45444;-71
2022/11/18 06:48:03;;;;;;;2.58;0.50;;;19.10;77.50;;;;;;6137635;22;46607;-71
2022/11/18 06:50:35;;;;;;;0.68;0.40;;;19.10;77.40;;;;;;6123774;22;45377;-72
2022/11/18 06:53:02;;;;;;;1.38;0.43;;;19.10;77.50;;;;;;6123838;22;45316;-72
2022/11/18 06:55:30;;;;;;;0.73;0.50;;;19.10;77.50;;;;;;6156410;22;45207;-72
2022/11/18 06:58:09;;;;;;;1.35;0.40;;;19.10;77.50;;;;;;6121936;22;46367;-72
2022/11/18 07:00:40;;;;;;;1.25;0.40;;;19.10;77.50;;;;;;6142949;22;45402;-72
2022/11/18 07:09:37;;;;;;;1.40;0.50;;;19.00;77.40;;;;;;6127272;22;45829;-71
2022/11/18 07:12:15;;;;;;;1.02;0.30;;;19.00;77.40;;;;;;6126266;22;45585;-71
2022/11/18 07:14:53;;;;;;;1.30;0.52;;;19.00;77.40;;;;;;6139561;22;45427;-71
2022/11/18 07:17:20;;;;;;;0.77;0.32;;;19.00;77.40;;;;;;6120204;22;45212;-71
2022/11/18 07:19:48;;;;;;;1.48;0.50;;;19.00;77.30;;;;;;6146787;22;46376;-71
2022/11/18 07:22:20;;;;;;;0.52;0.45;;;19.00;77.40;;;;;;6143356;22;45377;-71
2022/11/18 07:24:50;;;;;;;0.52;0.32;;;19.00;77.40;;;;;;6129011;22;45407;-71
2022/11/18 07:27:26;;;;;;;1.15;0.60;;;19.00;77.40;;;;;;6126553;22;45401;-71
2022/11/18 07:30:02;;;;;;;0.95;0.70;;;19.00;77.40;;;;;;6127255;22;46460;-71
2022/11/18 07:32:34;;;;;;;1.00;0.55;;;19.00;77.40;;;;;;6123800;22;45245;-72
2022/11/18 07:35:22;;;;;;;1.52;1.00;;;19.00;77.40;;;;;;6122319;22;45770;-71
2022/11/18 07:37:51;;;;;;;1.42;0.88;;;19.00;77.40;;;;;;6115303;22;45754;-72
2022/11/18 07:42:58;;;;;;;2.15;1.40;;;19.00;77.40;;;;;;6137183;22;45144;-72
2022/11/18 07:45:38;;;;;;;3.28;1.52;;;19.00;77.40;;;;;;6151040;22;45384;-71
2022/11/18 07:48:06;;;;;;;2.65;1.65;;;19.00;77.40;;;;;;6130541;22;45126;-72
2022/11/18 07:50:49;;;;;;;3.00;1.90;;;19.00;77.40;;;;;;6136621;22;47054;-71
2022/11/18 07:53:32;;;;;;;3.15;1.67;;;19.00;77.40;;;;;;6132945;22;45379;-72
2022/11/18 07:56:21;;;;;;;2.35;1.63;;;19.00;77.40;;;;;;6134188;22;45363;-71
2022/11/18 07:59:16;;;;;;;2.97;1.58;;;19.00;77.40;;;;;;6134831;22;45516;-71
2022/11/18 08:01:45;;;;;;;1.63;1.13;;;19.00;77.40;;;;;;6145191;22;47400;-71
2022/11/18 08:04:16;;;;;;;2.38;1.70;;;19.00;77.40;;;;;;6145414;22;45206;-71
2022/11/18 08:06:43;;;;;;;2.20;1.25;;;19.00;77.40;;;;;;6268499;22;45307;-70
2022/11/18 08:09:12;;;;;;;3.42;1.58;;;19.00;77.40;;;;;;6304310;22;45342;-69
2022/11/18 08:11:39;;;;;;;2.35;1.40;;;18.90;77.30;;;;;;6304908;22;46578;-70
2022/11/18 08:14:06;;;;;;;3.78;1.60;;;18.90;77.30;;;;;;6304621;22;45206;-71
2022/11/18 08:16:33;;;;;;;2.00;1.30;;;19.00;77.30;;;;;;6304942;22;45257;-70
2022/11/18 08:19:00;;;;;;;1.98;1.30;;;18.90;77.30;;;;;;6304959;22;45510;-70
2022/11/18 08:21:27;;;;;;;2.35;1.60;;;19.00;77.30;;;;;;6304584;22;45541;-71
2022/11/18 08:23:56;;;;;;;2.38;1.30;;;19.00;77.40;;;;;;6305338;22;45250;-70
2022/11/18 08:26:24;;;;;;;3.10;1.38;;;19.00;77.40;;;;;;6304853;22;45375;-71
2022/11/18 08:28:52;;;;;;;2.75;1.52;;;19.00;77.40;;;;;;6304245;22;45337;-70
2022/11/18 08:31:21;;;;;;;2.13;1.35;;;19.00;77.40;;;;;;6304970;22;46245;-70
2022/11/18 08:33:48;;;;;;;2.05;1.50;;;19.00;77.30;;;;;;6304407;22;45257;-70
2022/11/18 08:36:18;;;;;;;2.03;1.25;;;19.00;77.30;;;;;;6305158;22;45424;-70
2022/11/18 08:38:45;;;;;;;2.15;1.17;;;19.00;77.40;;;;;;6302123;22;45214;-70
2022/11/18 08:41:13;;;;;;;1.23;0.95;;;19.00;77.30;;;;;;6304734;22;47073;-70
2022/11/18 08:43:42;;;;;;;2.20;1.17;;;19.00;77.40;;;;;;6304718;22;45254;-70
2022/11/18 08:46:08;;;;;;;3.00;1.10;;;19.00;77.40;;;;;;6304657;22;45378;-69
2022/11/18 08:48:35;;;;;;;1.83;1.33;;;19.00;77.30;;;;;;6305115;22;45349;-70
2022/11/18 08:51:02;;;;;;;2.45;1.20;;;19.00;77.30;;;;;;6304257;22;46384;-69
2022/11/18 08:53:29;;;;;;;1.80;1.10;;;19.00;77.40;;;;;;6305103;22;45261;-70
2022/11/18 08:55:56;;;;;;;1.35;1.00;;;19.00;77.30;;;;;;6304682;22;45328;-71
2022/11/18 08:58:25;;;;;;;1.30;0.95;;;19.00;77.40;;;;;;6305364;22;45153;-70
2022/11/18 09:00:53;;;;;;;1.60;1.10;;;19.00;77.40;;;;;;6304494;22;46373;-70
2022/11/18 09:03:20;;;;;;;2.75;1.30;;;19.00;77.30;;;;;;6304200;22;45424;-70
2022/11/18 09:05:47;;;;;;;1.73;1.30;;;19.00;77.40;;;;;;6304942;22;45280;-69
2022/11/18 09:08:14;;;;;;;1.88;1.17;;;19.00;77.40;;;;;;6304450;22;45417;-70
2022/11/18 09:10:41;;;;;;;1.92;1.38;;;19.00;77.30;;;;;;6304032;22;46651;-69
2022/11/18 09:13:08;;;;;;;1.88;1.08;;;19.00;77.30;;;;;;6305733;22;45388;-69
2022/11/18 09:15:36;;;;;;;1.48;1.00;;;19.00;77.40;;;;;;6303705;22;45369;-70
2022/11/18 09:18:04;;;;;;;1.30;1.00;;;19.00;77.40;;;;;;6305352;22;45418;-70
2022/11/18 09:20:31;;;;;;;3.60;1.10;;;19.00;77.40;;;;;;6302973;22;45419;-70
2022/11/18 09:22:57;;;;;;;1.58;0.93;;;19.00;77.40;;;;;;6304865;22;45312;-70
2022/11/18 09:25:25;;;;;;;1.63;1.10;;;19.00;77.30;;;;;;6304149;22;45255;-70
2022/11/18 09:27:54;;;;;;;1.65;1.00;;;19.00;77.20;;;;;;6304646;22;45428;-70
2022/11/18 09:30:21;;;;;;;1.55;1.10;;;19.00;77.10;;;;;;6303928;22;46564;-71
2022/11/18 09:32:49;;;;;;;3.28;0.98;;;19.00;78.10;;;;;;6304595;22;45306;-70
2022/11/18 09:35:17;;;;;;;1.75;0.90;;;19.00;77.00;;;;;;6304681;22;45295;-70
2022/11/18 09:37:44;;;;;;;3.00;1.20;;;19.00;76.80;;;;;;6302349;22;45210;-70
2022/11/18 09:40:15;;;;;;;2.65;1.05;;;19.00;76.80;;;;;;6303324;22;47377;-70
2022/11/18 09:42:56;;;;;;;1.75;1.05;;;19.00;76.80;;;;;;6304993;22;45241;-70
2022/11/18 09:45:27;;;;;;;1.63;0.93;;;19.00;76.70;;;;;;6304382;22;45310;-70
2022/11/18 09:47:58;;;;;;;1.77;0.93;;;19.00;76.70;;;;;;6304547;22;45282;-70
2022/11/18 09:50:26;;;;;;;1.83;0.80;;;19.10;76.80;;;;;;6303407;22;46716;-70
2022/11/18 09:53:07;;;;;;;0.82;0.70;;;19.00;76.80;;;;;;6304401;22;46115;-70
2022/11/18 09:55:38;;;;;;;1.33;0.68;;;19.00;77.00;;;;;;6303924;22;45464;-70
2022/11/18 09:58:06;;;;;;;1.35;0.63;;;19.00;77.00;;;;;;6304307;22;45444;-70
2022/11/18 10:00:34;;;;;;;1.60;0.88;;;19.00;76.90;;;;;;6303348;22;46859;-70
2022/11/18 10:03:05;;;;;;;1.10;0.77;;;19.00;77.20;;;;;;6302356;22;45360;-70
2022/11/18 10:05:45;;;;;;;1.42;0.73;;;19.00;77.30;;;;;;6304705;22;45369;-71
2022/11/18 10:08:21;;;;;;;1.23;0.70;;;19.00;77.30;;;;;;6303052;22;45391;-70
2022/11/18 10:10:56;;;;;;;1.10;0.70;;;19.00;77.30;;;;;;6302956;22;48524;-69
2022/11/18 10:13:32;;;;;;;0.77;0.70;;;19.00;77.40;;;;;;6303805;22;45309;-70
2022/11/18 10:16:11;;;;;;;1.42;0.80;;;19.00;77.40;;;;;;6303881;22;45265;-67
2022/11/18 10:18:47;;;;;;;13.70;1.73;;;19.00;77.10;;;;;;6304774;22;45222;-71
2022/11/18 10:21:23;;;;;;;2.78;1.00;;;19.10;77.50;;;;;;6303477;22;47377;-71
2022/11/18 10:23:54;;;;;;;4.13;1.10;;;19.10;77.50;;;;;;6304855;22;45253;-71
2022/11/18 10:26:33;;;;;;;2.35;0.93;;;19.00;77.30;;;;;;6304523;22;45281;-71
2022/11/18 10:29:00;;;;;;;1.52;0.80;;;19.00;77.00;;;;;;6304745;22;45356;-69
2022/11/18 10:31:27;;;;;;;5.55;0.88;;;19.10;76.80;;;;;;6306962;22;47454;-76
2022/11/18 10:33:58;;;;;;;19.27;1.95;;;19.10;77.30;;;;;;6309013;22;45325;-74
2022/11/18 10:36:36;;;;;;;7.80;0.80;;;19.20;77.50;;;;;;6309904;22;45306;-73
2022/11/18 10:39:12;;;;;;;9.45;1.40;;;19.20;77.60;;;;;;6308547;22;45295;-73
2022/11/18 10:41:45;;;;;;;7.93;1.02;;;19.20;77.60;;;;;;6309178;22;47342;-73
2022/11/18 10:44:34;;;;;;;4.82;1.13;;;19.20;77.50;;;;;;6309397;22;45115;-74
2022/11/18 10:47:23;;;;;;;2.33;0.88;;;19.20;77.60;;;;;;6309540;22;45177;-73
2022/11/18 10:49:50;;;;;;;10.63;1.70;;;19.20;77.50;;;;;;6309556;22;45183;-73
2022/11/18 10:52:18;;;;;;;9.20;1.80;;;19.20;77.50;;;;;;6309956;22;45526;-72
2022/11/18 10:54:45;;;;;;;9.48;1.15;;;19.20;77.20;;;;;;6310732;22;45714;-73
2022/11/18 10:57:19;;;;;;;2.85;0.90;;;19.20;77.40;;;;;;6311257;22;45189;-73
2022/11/18 10:59:49;;;;;;;11.13;1.00;;;19.20;77.10;;;;;;6311132;22;45156;-73
2022/11/18 11:02:19;;;;;;;3.65;1.10;;;19.30;77.30;;;;;;6311035;22;47681;-73
2022/11/18 11:04:48;;;;;;;7.18;0.90;;;19.20;77.10;;;;;;6310219;22;45074;-73
2022/11/18 11:07:27;;;;;;;3.25;0.80;;;19.30;77.10;;;;;;6311336;22;45064;-73
2022/11/18 11:10:13;;;;;;;3.58;0.82;;;19.20;76.80;;;;;;6311216;22;45292;-73
2022/11/18 11:12:46;;;;;;;2.78;0.65;;;19.20;77.00;;;;;;6311060;22;47542;-73
2022/11/18 11:18:44;;;;;;;1.35;0.68;;;19.20;76.30;;;;;;6311152;22;45016;-73
2022/11/18 11:21:12;;;;;;;0.65;0.50;;;19.20;76.10;;;;;;6311006;22;45258;-73
2022/11/18 11:23:40;;;;;;;2.90;0.80;;;19.20;75.80;;;;;;6310411;22;48243;-71
2022/11/18 11:26:13;;;;;;;1.40;0.50;;;19.20;75.60;;;;;;6310620;22;45696;-72
2022/11/18 11:32:10;;;;;;;1.33;0.70;;;19.20;75.30;;;;;;6311011;22;45166;-71
2022/11/18 11:34:44;;;;;;;1.05;0.50;;;19.20;75.30;;;;;;6310724;22;46527;-71
2022/11/18 11:37:20;;;;;;;1.98;0.60;;;19.20;75.70;;;;;;6311445;22;45173;-71
2022/11/18 11:40:00;;;;;;;3.33;0.88;;;19.20;75.60;;;;;;6311347;22;45125;-71
2022/11/18 11:42:41;;;;;;;2.03;0.60;;;19.20;75.80;;;;;;6311284;22;45298;-72
2022/11/18 11:48:42;;;;;;;1.77;0.40;;;19.20;75.80;;;;;;6310671;22;45084;-71
2022/11/18 11:51:20;;;;;;;1.10;0.60;;;19.20;75.60;;;;;;6310844;22;45242;-72
2022/11/18 11:53:57;;;;;;;0.88;0.38;;;19.20;76.70;;;;;;6311215;22;45354;-72
2022/11/18 11:56:33;;;;;;;2.63;0.60;;;19.20;75.10;;;;;;6310334;22;46484;-73
2022/11/18 11:59:15;;;;;;;1.67;0.57;;;19.20;75.10;;;;;;6310970;22;45101;-72
2022/11/18 12:01:57;;;;;;;1.00;0.50;;;19.20;75.60;;;;;;6310476;22;45089;-72
2022/11/18 12:04:34;;;;;;;2.70;0.70;;;19.20;75.60;;;;;;6310408;22;45317;-72
2022/11/18 12:07:03;;;;;;;1.67;0.68;;;19.20;75.70;;;;;;6310647;22;47335;-72
2022/11/18 12:09:43;;;;;;;0.75;0.50;;;19.20;75.60;;;;;;6310520;22;45220;-71
2022/11/18 12:18:26;;;;;;;1.92;0.70;;;19.10;77.00;;;;;;6310495;22;45604;-71
2022/11/18 12:20:54;;;;;;;0.55;0.40;;;19.10;77.10;;;;;;6310404;22;45096;-71
2022/11/18 12:23:22;;;;;;;1.23;0.73;;;19.10;77.00;;;;;;6310434;22;45240;-72
2022/11/18 12:26:05;;;;;;;1.45;0.60;;;19.10;76.70;;;;;;6310590;22;45238;-71
2022/11/18 12:28:37;;;;;;;1.40;0.50;;;19.10;76.50;;;;;;6306028;22;46544;-72
2022/11/18 12:31:35;;;;;;;3.10;0.70;;;19.10;75.90;;;;;;6309944;22;45123;-71
2022/11/18 12:34:18;;;;;;;1.58;0.70;;;19.10;75.40;;;;;;6310264;22;45188;-72
2022/11/18 12:40:09;;;;;;;1.25;0.70;;;19.10;76.10;;;;;;6310359;22;45146;-72
2022/11/18 12:45:58;;;;;;;5.35;0.80;;;19.20;76.10;;;;;;6310247;22;45300;-74
2022/11/18 12:48:34;;;;;;;5.80;1.00;;;19.20;77.50;;;;;;6307487;22;45339;-74
2022/11/18 12:51:03;;;;;;;1.45;0.80;;;19.20;79.10;;;;;;6308743;22;47923;-74
2022/11/18 13:00:30;;;;;;;1.83;0.57;;;19.10;77.40;;;;;;6310284;22;45357;-73
